Time;durP1;ratioP1;P1;durP2;ratioP2;P2;SDS_P1;SDS_P2;PMS_P1;PMS_P2;Temp;Humidity;BMP_temperature;BMP_pressure;BME280_temperature;BME280_humidity;BME280_pressure;Samples;Min_cycle;Max_cycle;Signal;HPM_P1;HPM_P2
2022/10/31 00:02:02;;;;;;;23.53;16.13;;;;;;;12.79;100.00;101909.72;5019505;28;20116;-84
2022/10/31 00:04:28;;;;;;;24.30;16.20;;;;;;;12.79;100.00;101917.06;5018930;28;20045;-85
2022/10/31 00:06:53;;;;;;;25.57;16.00;;;;;;;12.80;100.00;101913.28;5019527;28;20041;-85
2022/10/31 00:09:18;;;;;;;21.60;16.17;;;;;;;12.75;100.00;101915.78;5019089;28;20145;-85
2022/10/31 00:11:44;;;;;;;23.13;16.60;;;;;;;12.64;100.00;101922.59;5018938;28;20524;-85
2022/10/31 00:14:09;;;;;;;21.43;15.23;;;;;;;12.58;100.00;101920.66;5018680;28;20088;-85
2022/10/31 00:16:35;;;;;;;21.57;15.23;;;;;;;12.63;100.00;101924.50;5020009;28;20038;-85
2022/10/31 00:19:03;;;;;;;21.97;15.37;;;;;;;12.62;100.00;101928.25;5033940;28;20040;-85
2022/10/31 00:21:30;;;;;;;23.93;15.53;;;;;;;12.61;100.00;101923.00;5017524;28;20060;-85
2022/10/31 00:23:57;;;;;;;24.43;15.30;;;;;;;12.66;100.00;101926.81;5018999;28;20128;-85
2022/10/31 00:26:22;;;;;;;21.13;15.30;;;;;;;12.59;100.00;101925.94;5033506;28;20068;-85
2022/10/31 00:28:48;;;;;;;22.23;15.40;;;;;;;12.61;100.00;101926.56;5019417;28;20128;-85
2022/10/31 00:31:13;;;;;;;26.17;17.10;;;;;;;12.58;100.00;101924.25;5018271;28;20045;-85
2022/10/31 00:33:40;;;;;;;30.40;20.73;;;;;;;12.58;100.00;101926.97;5019810;28;20060;-85
2022/10/31 00:36:07;;;;;;;28.90;19.77;;;;;;;12.55;100.00;101927.38;4984772;28;20473;-85
2022/10/31 00:38:33;;;;;;;26.97;19.40;;;;;;;12.54;100.00;101924.81;5019019;28;20462;-85
2022/10/31 00:40:58;;;;;;;28.53;18.77;;;;;;;12.45;100.00;101921.44;5018810;28;20045;-85
2022/10/31 00:43:55;;;;;;;27.40;17.33;;;;;;;12.46;100.00;101928.56;5018057;28;20049;-85
2022/10/31 00:46:21;;;;;;;23.47;17.10;;;;;;;12.32;100.00;101922.16;5018563;28;20042;-85
2022/10/31 00:48:46;;;;;;;24.30;17.17;;;;;;;12.27;100.00;101913.78;5018665;28;20137;-85
2022/10/31 00:51:11;;;;;;;23.07;15.87;;;;;;;12.25;100.00;101910.41;5034530;28;20099;-85
2022/10/31 00:53:36;;;;;;;24.60;16.33;;;;;;;12.23;100.00;101897.00;5004245;28;20453;-85
2022/10/31 00:56:02;;;;;;;22.87;15.83;;;;;;;12.10;100.00;101908.63;5004112;28;20124;-85
2022/10/31 00:58:28;;;;;;;20.77;14.50;;;;;;;12.20;100.00;101916.44;5022726;28;20120;-85
2022/10/31 01:00:56;;;;;;;20.57;13.93;;;;;;;12.18;100.00;101909.50;5019481;28;20123;-85
2022/10/31 01:03:30;;;;;;;20.23;14.37;;;;;;;12.11;100.00;101920.31;5023737;28;20734;-85
2022/10/31 01:06:00;;;;;;;19.70;13.43;;;;;;;11.97;100.00;101922.91;5037629;28;20124;-85
2022/10/31 01:08:26;;;;;;;20.93;13.77;;;;;;;12.01;100.00;101920.66;5037458;28;20045;-85
2022/10/31 01:11:03;;;;;;;20.63;13.27;;;;;;;11.96;100.00;101929.38;5002849;28;20037;-85
2022/10/31 01:13:29;;;;;;;21.00;14.30;;;;;;;11.89;100.00;101928.44;5037868;28;20029;-85
2022/10/31 01:15:56;;;;;;;19.47;13.87;;;;;;;11.85;100.00;101919.00;5021432;28;20033;-85
2022/10/31 01:18:22;;;;;;;20.50;13.93;;;;;;;11.77;100.00;101903.69;5023014;28;20041;-85
2022/10/31 01:20:56;;;;;;;22.30;15.60;;;;;;;11.78;100.00;101890.97;5003946;28;20060;-85
2022/10/31 01:23:21;;;;;;;23.85;16.33;;;;;;;11.76;100.00;101895.72;5022156;28;20045;-85
2022/10/31 01:25:46;;;;;;;22.03;16.07;;;;;;;11.73;100.00;101887.97;5022112;28;20055;-85
2022/10/31 01:28:12;;;;;;;21.50;15.33;;;;;;;11.70;100.00;101885.66;5022412;28;20091;-85
2022/10/31 01:30:37;;;;;;;20.80;14.70;;;;;;;11.64;100.00;101892.69;5035882;28;20064;-85
2022/10/31 01:33:02;;;;;;;21.53;14.57;;;;;;;11.62;100.00;101886.63;5021928;28;20038;-85
2022/10/31 01:35:28;;;;;;;21.47;15.23;;;;;;;11.54;100.00;101892.19;5036702;28;20037;-85
2022/10/31 01:37:53;;;;;;;21.40;15.13;;;;;;;11.54;100.00;101894.88;5022006;28;20160;-85
2022/10/31 01:40:18;;;;;;;22.20;15.30;;;;;;;11.46;100.00;101898.56;5021114;28;20052;-85
2022/10/31 01:42:44;;;;;;;23.93;15.93;;;;;;;11.46;100.00;101898.56;5022675;28;20566;-85
2022/10/31 01:45:10;;;;;;;22.17;15.60;;;;;;;11.44;100.00;101904.19;5020821;28;20034;-85
2022/10/31 01:47:45;;;;;;;20.43;14.13;;;;;;;11.37;100.00;101907.84;5021886;28;20608;-85
2022/10/31 01:50:21;;;;;;;22.60;14.70;;;;;;;11.36;100.00;101906.19;5022036;28;20713;-85
2022/10/31 01:52:49;;;;;;;25.63;16.93;;;;;;;11.37;100.00;101905.13;5021531;28;20037;-85
2022/10/31 01:55:26;;;;;;;25.23;17.80;;;;;;;11.53;100.00;101904.88;5021576;28;20025;-85
2022/10/31 01:57:54;;;;;;;23.67;16.63;;;;;;;11.27;100.00;101902.72;5020578;28;20428;-85
2022/10/31 02:00:21;;;;;;;24.17;15.40;;;;;;;11.35;100.00;101909.91;5021360;28;20044;-85
2022/10/31 02:02:49;;;;;;;23.37;16.13;;;;;;;11.31;100.00;101909.44;5021559;28;20045;-85
2022/10/31 02:05:18;;;;;;;25.40;17.00;;;;;;;11.28;100.00;101905.25;5000316;28;20079;-85
2022/10/31 02:07:57;;;;;;;21.33;16.87;;;;;;;11.29;100.00;101909.66;5003901;28;20035;-85
2022/10/31 02:10:23;;;;;;;24.67;16.90;;;;;;;11.31;100.00;101891.31;5021876;28;20029;-85
2022/10/31 02:12:53;;;;;;;21.73;15.93;;;;;;;11.27;100.00;101906.28;5020798;28;20067;-85
2022/10/31 02:15:18;;;;;;;23.40;15.70;;;;;;;11.23;100.00;101896.84;5003565;28;20467;-85
2022/10/31 02:17:44;;;;;;;21.90;15.23;;;;;;;11.25;100.00;101893.94;5021180;28;20707;-85
2022/10/31 02:20:13;;;;;;;20.00;15.00;;;;;;;11.21;100.00;101896.19;5035609;28;20042;-85
2022/10/31 02:23:13;;;;;;;19.63;14.73;;;;;;;11.23;100.00;101890.56;5021447;28;20192;-86
2022/10/31 02:25:59;;;;;;;24.53;17.23;;;;;;;11.30;100.00;101892.34;5020558;28;20485;-85
2022/10/31 02:28:42;;;;;;;23.00;16.73;;;;;;;11.29;100.00;101893.38;5022004;28;20032;-85
2022/10/31 02:31:23;;;;;;;24.07;18.40;;;;;;;11.27;100.00;101891.88;5021341;28;20037;-85
2022/10/31 02:34:11;;;;;;;24.67;18.37;;;;;;;11.31;100.00;101888.59;5021027;28;20038;-85
2022/10/31 02:37:01;;;;;;;24.57;17.87;;;;;;;11.30;100.00;101895.06;5020007;28;20025;-85
2022/10/31 02:39:33;;;;;;;20.70;16.37;;;;;;;11.05;100.00;101890.97;5020702;28;20114;-85
2022/10/31 02:42:21;;;;;;;20.83;15.33;;;;;;;10.98;100.00;101890.91;5034319;28;20049;-85
2022/10/31 02:44:53;;;;;;;20.53;15.40;;;;;;;11.00;100.00;101890.72;5021572;28;20163;-85
2022/10/31 02:47:26;;;;;;;20.00;14.90;;;;;;;10.82;100.00;101894.63;5019759;28;20038;-85
2022/10/31 02:50:10;;;;;;;18.80;14.73;;;;;;;10.95;100.00;101883.97;5020749;28;20060;-85
2022/10/31 02:52:36;;;;;;;20.13;14.90;;;;;;;10.81;100.00;101885.69;5020500;28;20033;-85
2022/10/31 02:55:26;;;;;;;21.43;15.20;;;;;;;10.79;100.00;101889.59;5019937;28;20045;-85
2022/10/31 02:57:56;;;;;;;23.43;17.57;;;;;;;10.79;100.00;101884.19;5019755;28;20048;-85
2022/10/31 03:00:21;;;;;;;22.20;17.50;;;;;;;10.84;100.00;101883.59;5002585;28;20061;-85
2022/10/31 03:03:19;;;;;;;25.13;18.77;;;;;;;10.90;100.00;101889.13;5020169;28;20454;-85
2022/10/31 03:06:13;;;;;;;23.27;18.97;;;;;;;10.95;100.00;101894.81;5012342;28;20052;-85
2022/10/31 03:08:45;;;;;;;23.23;17.40;;;;;;;10.86;100.00;101893.25;4996410;28;20592;-85
2022/10/31 03:11:10;;;;;;;26.10;18.13;;;;;;;10.98;100.00;101893.59;5018443;28;20081;-85
2022/10/31 03:13:56;;;;;;;19.03;13.90;;;;;;;10.73;100.00;101895.75;5002371;28;20120;-85
2022/10/31 03:16:27;;;;;;;18.50;13.67;;;;;;;10.73;100.00;101895.75;5019914;28;20037;-85
2022/10/31 03:19:05;;;;;;;23.00;18.00;;;;;;;10.83;100.00;101896.34;5019757;28;20068;-85
2022/10/31 03:21:44;;;;;;;24.17;19.03;;;;;;;10.93;100.00;101896.91;5019543;28;20103;-85
2022/10/31 03:24:11;;;;;;;26.60;19.87;;;;;;;10.95;100.00;101899.41;5020102;28;20048;-85
2022/10/31 03:26:41;;;;;;;26.23;20.23;;;;;;;10.95;100.00;101897.53;5034341;28;20719;-84
2022/10/31 03:29:09;;;;;;;26.37;20.93;;;;;;;10.94;100.00;101895.84;5019487;28;20045;-85
2022/10/31 03:34:53;;;;;;;24.60;19.13;;;;;;;10.89;100.00;101892.88;5000021;28;20076;-84
2022/10/31 03:37:20;;;;;;;26.50;19.60;;;;;;;10.91;100.00;101895.41;5018862;28;20053;-85
2022/10/31 03:39:49;;;;;;;27.37;20.30;;;;;;;10.96;100.00;101895.66;5019383;28;20551;-85
2022/10/31 03:42:20;;;;;;;25.40;19.70;;;;;;;11.00;100.00;101888.81;5019240;28;20029;-85
2022/10/31 03:45:04;;;;;;;28.47;21.30;;;;;;;10.99;100.00;101889.88;5034561;28;20546;-85
2022/10/31 03:47:29;;;;;;;28.40;21.17;;;;;;;11.04;100.00;101883.88;5018519;28;20573;-84
2022/10/31 03:49:55;;;;;;;27.17;20.43;;;;;;;11.00;100.00;101890.72;5018353;28;20033;-84
2022/10/31 03:52:36;;;;;;;28.40;21.27;;;;;;;11.03;100.00;101895.75;5033325;28;20042;-84
2022/10/31 03:55:12;;;;;;;25.90;19.67;;;;;;;10.93;100.00;101891.47;5019644;28;20040;-84
2022/10/31 03:57:54;;;;;;;28.23;19.90;;;;;;;10.96;100.00;101891.09;5018762;28;20057;-84
2022/10/31 04:00:19;;;;;;;25.83;19.60;;;;;;;10.88;100.00;101891.19;5019017;28;20029;-84
2022/10/31 04:02:59;;;;;;;25.30;19.37;;;;;;;10.87;100.00;101894.94;5019964;28;20044;-85
2022/10/31 04:05:25;;;;;;;23.90;17.83;;;;;;;10.80;100.00;101886.69;5018990;28;20075;-85
2022/10/31 04:07:54;;;;;;;18.73;13.67;;;;;;;10.47;100.00;101887.06;5019703;28;20029;-85
2022/10/31 04:10:22;;;;;;;19.53;14.20;;;;;;;10.63;100.00;101891.50;5019079;28;20095;-84
2022/10/31 04:12:53;;;;;;;15.00;12.20;;;;;;;10.53;100.00;101893.63;5018411;28;20029;-84
2022/10/31 04:15:20;;;;;;;13.90;11.27;;;;;;;10.40;100.00;101890.69;5018286;28;20222;-84
2022/10/31 04:17:49;;;;;;;15.47;12.27;;;;;;;10.29;100.00;101889.25;5000581;28;20064;-84
2022/10/31 04:20:17;;;;;;;15.90;12.67;;;;;;;10.35;100.00;101893.13;5018384;28;20036;-84
2022/10/31 04:22:43;;;;;;;19.33;14.93;;;;;;;10.36;100.00;101894.81;5018861;28;20085;-84
2022/10/31 04:25:08;;;;;;;18.37;14.10;;;;;;;10.41;100.00;101892.41;5019300;28;20156;-84
2022/10/31 04:27:34;;;;;;;20.00;12.70;;;;;;;10.33;100.00;101890.56;5021531;28;20128;-84
2022/10/31 04:29:59;;;;;;;13.90;11.17;;;;;;;10.30;100.00;101885.53;5023244;28;20805;-84
2022/10/31 04:32:25;;;;;;;43.07;11.57;;;;;;;10.04;100.00;101891.38;5022676;28;20489;-84
2022/10/31 04:34:53;;;;;;;21.37;12.90;;;;;;;10.04;100.00;101892.19;5022509;28;20037;-84
2022/10/31 04:37:18;;;;;;;17.57;13.63;;;;;;;10.04;100.00;101888.66;5022538;28;20495;-84
2022/10/31 04:39:44;;;;;;;16.13;13.87;;;;;;;10.08;100.00;101895.38;5023368;28;20045;-84
2022/10/31 04:42:09;;;;;;;14.80;11.63;;;;;;;9.92;100.00;101894.47;5023056;28;20029;-83
2022/10/31 04:44:34;;;;;;;15.60;11.87;;;;;;;9.91;100.00;101898.25;5023075;28;20603;-84
2022/10/31 04:47:00;;;;;;;17.70;12.97;;;;;;;9.91;100.00;101891.97;5022447;28;20048;-84
2022/10/31 04:49:25;;;;;;;16.17;11.97;;;;;;;9.90;100.00;101890.28;5023263;28;20438;-84
2022/10/31 04:51:50;;;;;;;22.07;15.63;;;;;;;9.99;100.00;101893.78;5021839;28;20084;-84
2022/10/31 04:54:16;;;;;;;19.30;14.80;;;;;;;9.93;100.00;101882.63;5021478;28;20041;-84
2022/10/31 04:56:41;;;;;;;13.10;9.43;;;;;;;9.77;100.00;101880.91;5037803;28;20045;-84
2022/10/31 04:59:06;;;;;;;18.73;14.13;;;;;;;9.83;100.00;101883.91;5023146;28;20037;-84
2022/10/31 05:01:32;;;;;;;20.50;15.13;;;;;;;9.85;100.00;101890.00;5037038;28;20045;-84
2022/10/31 05:03:57;;;;;;;19.77;15.10;;;;;;;9.87;100.00;101885.22;5022444;28;20029;-83
2022/10/31 05:06:22;;;;;;;23.23;18.10;;;;;;;10.02;100.00;101890.69;5004440;28;20631;-84
2022/10/31 05:08:48;;;;;;;22.27;15.10;;;;;;;9.81;100.00;101892.22;5022676;28;20434;-83
2022/10/31 05:11:13;;;;;;;19.27;15.43;;;;;;;9.83;100.00;101876.63;5003434;28;20038;-83
2022/10/31 05:13:38;;;;;;;23.50;16.13;;;;;;;9.87;100.00;101882.53;5020939;28;20067;-84
2022/10/31 05:16:04;;;;;;;21.83;16.73;;;;;;;9.95;100.00;101875.19;5022475;28;20039;-83
2022/10/31 05:18:29;;;;;;;20.40;16.13;;;;;;;9.95;100.00;101869.78;5021952;28;20030;-84
2022/10/31 05:20:55;;;;;;;19.53;15.73;;;;;;;9.90;100.00;101857.78;5022097;28;20098;-83
2022/10/31 05:23:20;;;;;;;16.67;13.57;;;;;;;9.82;100.00;101866.84;5021710;28;20053;-83
2022/10/31 05:25:45;;;;;;;17.23;13.20;;;;;;;9.84;100.00;101863.94;5022344;28;20041;-83
2022/10/31 05:28:11;;;;;;;18.80;13.83;;;;;;;9.94;100.00;101876.22;5021204;28;20085;-83
2022/10/31 05:31:07;;;;;;;20.93;16.97;;;;;;;9.91;100.00;101876.59;5022980;28;20045;-83
2022/10/31 05:33:33;;;;;;;19.43;14.60;;;;;;;9.85;100.00;101871.88;5003582;28;20088;-84
2022/10/31 05:35:58;;;;;;;28.63;20.73;;;;;;;10.06;100.00;101878.47;5020932;28;20076;-84
2022/10/31 05:38:23;;;;;;;34.60;25.93;;;;;;;10.16;100.00;101870.94;5001875;28;20684;-83
2022/10/31 05:40:49;;;;;;;28.80;23.73;;;;;;;10.14;100.00;101871.13;5021813;28;20120;-83
2022/10/31 05:43:14;;;;;;;35.87;25.20;;;;;;;10.19;100.00;101865.16;5021765;28;20390;-83
2022/10/31 05:45:39;;;;;;;33.40;25.07;;;;;;;10.18;100.00;101858.03;5036891;28;20413;-83
2022/10/31 05:48:05;;;;;;;27.93;20.37;;;;;;;10.02;100.00;101856.31;5020997;28;20041;-83
2022/10/31 05:50:31;;;;;;;27.63;20.93;;;;;;;10.06;100.00;101854.09;5021264;28;20116;-83
2022/10/31 05:52:59;;;;;;;30.53;23.53;;;;;;;10.16;100.00;101856.53;5020959;28;20464;-83
2022/10/31 05:55:25;;;;;;;30.83;24.43;;;;;;;10.17;100.00;101853.63;5021498;28;20060;-83
2022/10/31 05:57:51;;;;;;;28.90;22.17;;;;;;;10.15;100.00;101853.00;5005003;28;20036;-83
2022/10/31 06:00:17;;;;;;;21.50;16.37;;;;;;;9.98;100.00;101860.41;5021431;28;20067;-83
2022/10/31 06:02:42;;;;;;;37.07;25.67;;;;;;;10.20;100.00;101858.72;5021606;28;20120;-83
2022/10/31 06:05:08;;;;;;;48.67;34.47;;;;;;;10.41;100.00;101854.47;5021435;28;20102;-84
2022/10/31 06:07:34;;;;;;;46.13;33.93;;;;;;;10.44;100.00;101854.09;5021462;28;20033;-83
2022/10/31 06:10:00;;;;;;;45.80;32.90;;;;;;;10.46;100.00;101852.03;5003234;28;20144;-83
2022/10/31 06:12:25;;;;;;;46.23;34.63;;;;;;;10.52;100.00;101856.69;5021529;28;20474;-83
2022/10/31 06:14:50;;;;;;;35.87;27.30;;;;;;;10.34;100.00;101848.91;5019252;28;20040;-83
2022/10/31 06:17:16;;;;;;;29.77;24.00;;;;;;;10.23;100.00;101850.22;5021709;28;20813;-83
2022/10/31 06:19:41;;;;;;;39.13;25.47;;;;;;;10.28;100.00;101847.78;5021725;28;20475;-83
2022/10/31 06:22:06;;;;;;;29.40;23.53;;;;;;;10.18;100.00;101843.66;5019685;28;21409;-83
2022/10/31 06:24:32;;;;;;;27.30;22.40;;;;;;;10.25;100.00;101840.03;5021234;28;20120;-83
2022/10/31 06:26:57;;;;;;;31.10;26.03;;;;;;;10.30;100.00;101843.00;5020327;28;20084;-82
2022/10/31 06:29:22;;;;;;;27.30;21.57;;;;;;;10.10;100.00;101848.16;5020627;28;20064;-83
2022/10/31 06:31:51;;;;;;;22.70;17.80;;;;;;;10.00;100.00;101854.84;5020799;28;20041;-83
2022/10/31 06:34:16;;;;;;;21.97;16.47;;;;;;;9.94;100.00;101849.13;5019836;28;20037;-83
2022/10/31 06:36:41;;;;;;;20.47;16.50;;;;;;;10.05;100.00;101849.69;5020774;28;20071;-83
2022/10/31 06:39:07;;;;;;;24.50;17.93;;;;;;;9.99;100.00;101847.75;5019821;28;20067;-82
2022/10/31 06:41:32;;;;;;;26.87;20.30;;;;;;;10.03;100.00;101849.88;5019694;28;20041;-83
2022/10/31 06:43:57;;;;;;;24.80;19.50;;;;;;;10.06;100.00;101852.25;5019987;28;20395;-83
2022/10/31 06:46:23;;;;;;;23.67;17.60;;;;;;;9.90;100.00;101865.91;5020624;28;20123;-84
2022/10/31 06:48:48;;;;;;;22.47;17.20;;;;;;;9.88;100.00;101865.25;5019711;28;20053;-83
2022/10/31 06:51:13;;;;;;;21.40;17.20;;;;;;;9.95;100.00;101861.66;5001943;28;20428;-84
2022/10/31 06:53:39;;;;;;;26.13;20.00;;;;;;;10.03;100.00;101857.19;5017884;28;20038;-83
2022/10/31 06:56:04;;;;;;;27.37;21.67;;;;;;;10.13;100.00;101849.63;5019742;28;20041;-83
2022/10/31 06:58:30;;;;;;;22.30;19.17;;;;;;;10.06;100.00;101856.81;5002195;28;20039;-83
2022/10/31 07:00:59;;;;;;;19.90;16.90;;;;;;;10.08;100.00;101857.47;5018126;28;20489;-82
2022/10/31 07:03:24;;;;;;;23.60;19.43;;;;;;;10.12;100.00;101856.09;5020029;28;20037;-84
2022/10/31 07:05:49;;;;;;;26.00;20.57;;;;;;;10.15;100.00;101850.28;5020360;28;20045;-83
2022/10/31 07:08:14;;;;;;;22.53;18.87;;;;;;;10.16;100.00;101854.69;5020476;28;20038;-83
2022/10/31 07:10:41;;;;;;;26.27;21.30;;;;;;;10.17;100.00;101852.81;5019879;28;20108;-82
2022/10/31 07:13:14;;;;;;;27.87;22.70;;;;;;;10.24;100.00;101857.31;5019953;28;20154;-83
2022/10/31 07:15:41;;;;;;;30.73;23.10;;;;;;;10.24;100.00;101857.31;5021610;28;20106;-83
2022/10/31 07:18:09;;;;;;;25.27;20.00;;;;;;;10.27;100.00;101843.41;5034773;28;20034;-83
2022/10/31 07:20:53;;;;;;;24.07;19.90;;;;;;;10.36;100.00;101857.72;5020156;28;20037;-83
2022/10/31 07:23:19;;;;;;;22.58;18.83;;;;;;;10.36;100.00;101862.31;5019748;28;20103;-83
2022/10/31 07:25:44;;;;;;;24.23;20.63;;;;;;;10.45;100.00;101859.31;5019627;28;20041;-83
2022/10/31 07:28:10;;;;;;;30.73;25.20;;;;;;;10.50;100.00;101861.47;5018409;28;20041;-83
2022/10/31 07:30:36;;;;;;;27.63;24.07;;;;;;;10.69;100.00;101856.50;5019309;28;21472;-83
2022/10/31 07:33:01;;;;;;;27.07;21.57;;;;;;;10.63;100.00;101864.38;5019155;28;20096;-83
2022/10/31 07:35:28;;;;;;;28.03;22.80;;;;;;;10.65;100.00;101858.78;5019416;28;20092;-83
2022/10/31 07:37:54;;;;;;;28.10;23.70;;;;;;;10.82;100.00;101864.81;5018225;28;20031;-83
2022/10/31 07:40:21;;;;;;;28.77;22.83;;;;;;;10.88;100.00;101858.66;5002139;28;20075;-84
2022/10/31 07:42:49;;;;;;;25.60;21.73;;;;;;;10.89;100.00;101867.63;5001120;28;20038;-81
2022/10/31 07:45:20;;;;;;;28.43;22.40;;;;;;;11.04;100.00;101868.44;4998761;28;20799;-84
2022/10/31 07:47:55;;;;;;;30.63;24.27;;;;;;;11.18;100.00;101865.88;5035066;28;20913;-84
2022/10/31 07:50:22;;;;;;;;;;;;;;;11.44;100.00;101868.91;5020526;28;20071;-84
2022/10/31 07:52:47;;;;;;;31.23;25.47;;;;;;;11.56;100.00;101863.81;5019364;28;19971;-84
2022/10/31 07:55:16;;;;;;;29.47;25.07;;;;;;;11.68;100.00;101869.53;5019717;28;20049;-84
2022/10/31 07:57:41;;;;;;;29.97;25.63;;;;;;;11.86;100.00;101871.81;5034144;28;20040;-84
2022/10/31 08:00:09;;;;;;;31.03;24.53;;;;;;;11.91;100.00;101869.38;5018504;28;20416;-84
2022/10/31 08:02:34;;;;;;;29.90;24.80;;;;;;;12.12;100.00;101881.25;5001405;28;20118;-84
2022/10/31 08:05:18;;;;;;;32.43;25.67;;;;;;;12.34;100.00;101876.63;5020172;28;20045;-84
2022/10/31 08:07:43;;;;;;;32.63;26.77;;;;;;;12.49;100.00;101871.06;5001151;28;20045;-84
2022/10/31 08:10:08;;;;;;;32.33;26.30;;;;;;;12.81;100.00;101876.88;5033750;28;20040;-84
2022/10/31 08:12:34;;;;;;;29.00;23.53;;;;;;;13.04;100.00;101881.19;5019469;28;20045;-84
2022/10/31 08:14:59;;;;;;;29.03;24.83;;;;;;;13.19;100.00;101868.28;5019767;28;20115;-84
2022/10/31 08:17:24;;;;;;;29.13;24.20;;;;;;;13.45;100.00;101883.00;5033408;28;20048;-85
2022/10/31 08:19:50;;;;;;;30.57;23.43;;;;;;;13.62;100.00;101878.88;5018367;28;20041;-85
2022/10/31 08:22:15;;;;;;;29.90;22.63;;;;;;;13.80;100.00;101878.28;5017965;28;20095;-85
2022/10/31 08:24:40;;;;;;;29.43;22.93;;;;;;;14.00;100.00;101883.72;5017726;28;20041;-85
2022/10/31 08:27:06;;;;;;;26.17;21.50;;;;;;;14.08;100.00;101882.69;5034197;28;20059;-89
2022/10/31 08:29:31;;;;;;;27.03;21.07;;;;;;;14.23;100.00;101874.28;5018844;28;20076;-85
2022/10/31 08:31:57;;;;;;;28.00;21.50;;;;;;;14.26;100.00;101884.75;5018640;28;20127;-85
2022/10/31 08:34:23;;;;;;;28.83;21.40;;;;;;;14.25;100.00;101874.06;5019079;28;20044;-85
2022/10/31 08:36:51;;;;;;;29.17;22.87;;;;;;;14.18;100.00;101858.56;5034785;28;20045;-86
2022/10/31 08:39:16;;;;;;;30.17;22.27;;;;;;;14.22;100.00;101856.25;5018757;28;20071;-87
2022/10/31 08:41:42;;;;;;;31.43;22.73;;;;;;;14.25;100.00;101865.91;5018518;28;20045;-86
2022/10/31 08:44:07;;;;;;;32.70;23.03;;;;;;;14.33;100.00;101882.88;5018563;28;20088;-86
2022/10/31 08:46:32;;;;;;;28.87;21.57;;;;;;;14.46;100.00;101871.09;5019060;28;20088;-85
2022/10/31 08:48:58;;;;;;;26.60;20.97;;;;;;;14.55;100.00;101855.38;5035276;28;20720;-84
2022/10/31 08:51:23;;;;;;;24.43;20.33;;;;;;;14.56;100.00;101867.94;5034433;28;20684;-87
2022/10/31 08:53:48;;;;;;;25.50;20.43;;;;;;;14.43;100.00;101854.31;5018164;28;20064;-86
2022/10/31 08:56:14;;;;;;;24.70;19.90;;;;;;;14.37;100.00;101831.47;5019477;28;20053;-86
2022/10/31 08:58:39;;;;;;;27.47;19.60;;;;;;;14.29;100.00;101807.19;5018477;28;20107;-86
2022/10/31 09:01:05;;;;;;;25.27;18.67;;;;;;;14.24;100.00;101807.81;5018844;28;20444;-88
2022/10/31 09:03:30;;;;;;;26.73;18.83;;;;;;;14.23;100.00;101811.59;5018467;28;20033;-89
2022/10/31 09:06:01;;;;;;;24.03;18.37;;;;;;;14.20;100.00;101809.31;5000503;28;20147;-87
2022/10/31 09:08:29;;;;;;;25.07;18.83;;;;;;;14.15;100.00;101817.28;5018652;28;20068;-87
2022/10/31 09:10:56;;;;;;;25.67;19.00;;;;;;;14.10;100.00;101820.66;5018440;28;20037;-88
2022/10/31 09:13:21;;;;;;;26.60;18.77;;;;;;;14.16;100.00;101829.84;5020716;28;20033;-87
2022/10/31 09:15:48;;;;;;;29.23;19.33;;;;;;;14.11;100.00;101826.91;5023595;28;20401;-88
2022/10/31 09:18:16;;;;;;;26.13;19.27;;;;;;;14.08;100.00;101839.06;5002993;28;20041;-88
2022/10/31 09:20:42;;;;;;;26.00;19.67;;;;;;;14.08;100.00;101828.19;5003543;28;20975;-88
2022/10/31 09:23:11;;;;;;;27.20;20.10;;;;;;;14.06;100.00;101838.47;5022226;28;20124;-88
2022/10/31 09:25:37;;;;;;;27.10;19.50;;;;;;;14.18;100.00;101830.47;5013388;28;20731;-87
2022/10/31 09:28:04;;;;;;;28.73;19.83;;;;;;;14.26;100.00;101837.59;5021793;28;20095;-88
2022/10/31 09:30:32;;;;;;;28.07;19.90;;;;;;;14.26;100.00;101843.03;5022636;28;20039;-88
2022/10/31 09:32:59;;;;;;;26.90;19.80;;;;;;;14.26;100.00;101818.50;5021827;28;20037;-88
2022/10/31 09:35:25;;;;;;;27.73;19.87;;;;;;;14.33;100.00;101814.72;5022734;28;20033;-88
2022/10/31 09:37:58;;;;;;;29.13;20.07;;;;;;;14.37;100.00;101806.94;5022772;28;20033;-88
2022/10/31 09:40:35;;;;;;;30.57;21.33;;;;;;;14.41;100.00;101796.47;5021951;28;20043;-88
2022/10/31 09:43:21;;;;;;;28.27;20.37;;;;;;;14.52;100.00;101804.81;5022313;28;20067;-89
2022/10/31 09:46:02;;;;;;;29.53;21.87;;;;;;;14.47;100.00;101776.50;5022095;28;20101;-88
2022/10/31 09:48:46;;;;;;;29.17;22.50;;;;;;;14.49;100.00;101779.84;5021656;28;20041;-88
2022/10/31 09:51:18;;;;;;;31.25;22.33;;;;;;;14.45;100.00;101773.16;5021855;28;20033;-89
2022/10/31 09:53:56;;;;;;;31.43;23.80;;;;;;;14.38;100.00;101762.28;5021600;28;20064;-88
2022/10/31 09:56:25;;;;;;;31.87;24.23;;;;;;;14.38;100.00;101766.91;5001154;28;20129;-89
2022/10/31 09:58:53;;;;;;;31.10;23.27;;;;;;;14.44;100.00;101796.03;5017091;28;20187;-88
2022/10/31 10:01:43;;;;;;;31.87;24.03;;;;;;;14.49;100.00;101779.84;5020894;28;20040;-90
2022/10/31 10:04:11;;;;;;;32.23;24.03;;;;;;;14.48;100.00;101778.19;5021854;28;20502;-87
2022/10/31 10:06:42;;;;;;;35.10;24.00;;;;;;;14.50;100.00;101774.19;5021387;28;20029;-88
2022/10/31 10:09:09;;;;;;;32.90;23.70;;;;;;;14.55;100.00;101772.69;5021140;28;21450;-87
2022/10/31 10:11:48;;;;;;;33.47;23.40;;;;;;;14.55;100.00;101778.16;5020768;28;20037;-86
2022/10/31 10:14:23;;;;;;;32.77;24.27;;;;;;;14.56;100.00;101764.31;5021568;28;20083;-88
2022/10/31 10:17:07;;;;;;;;;;;;;;;14.77;100.00;101763.19;5022717;28;20071;-87
2022/10/31 10:19:44;;;;;;;34.33;25.10;;;;;;;14.71;100.00;101749.59;5020095;28;20506;-87
2022/10/31 10:22:26;;;;;;;35.13;26.33;;;;;;;14.69;100.00;101737.00;5020333;28;20049;-86
2022/10/31 10:25:20;;;;;;;35.47;26.57;;;;;;;14.93;100.00;101736.44;5035663;28;20037;-87
2022/10/31 10:28:22;;;;;;;36.27;26.97;;;;;;;15.10;100.00;101732.16;5020794;28;20031;-85
2022/10/31 10:30:57;;;;;;;34.07;26.83;;;;;;;15.20;100.00;101726.19;5020258;28;21046;-88
2022/10/31 10:33:30;;;;;;;35.87;27.60;;;;;;;15.23;100.00;101728.50;5021369;28;20083;-87
2022/10/31 10:36:03;;;;;;;35.53;26.08;;;;;;;15.21;100.00;101722.41;5001643;28;20029;-88
2022/10/31 10:38:44;;;;;;;34.60;27.90;;;;;;;15.19;100.00;101714.44;5020999;28;20037;-88
2022/10/31 10:41:16;;;;;;;37.13;28.50;;;;;;;15.18;100.00;101707.31;5017924;28;20041;-88
2022/10/31 10:43:41;;;;;;;37.90;28.23;;;;;;;15.23;100.00;101709.41;5020350;28;20074;-86
2022/10/31 10:49:09;;;;;;;35.73;27.57;;;;;;;15.32;100.00;101724.41;5020389;28;20091;-88
2022/10/31 10:51:45;;;;;;;32.93;26.43;;;;;;;15.34;100.00;101716.03;5021154;28;20064;-87
2022/10/31 10:54:32;;;;;;;33.80;26.37;;;;;;;15.41;100.00;101721.41;5019046;28;20068;-87
2022/10/31 10:57:10;;;;;;;37.83;27.50;;;;;;;15.45;100.00;101722.63;5019804;28;20090;-88
2022/10/31 10:59:35;;;;;;;34.40;26.47;;;;;;;15.46;100.00;101721.59;5020234;28;20574;-87
2022/10/31 11:02:00;;;;;;;37.10;28.13;;;;;;;15.51;100.00;101710.84;5034637;28;20048;-88
2022/10/31 11:04:35;;;;;;;34.00;27.33;;;;;;;15.60;100.00;101703.19;5020300;28;20034;-89
2022/10/31 11:07:11;;;;;;;34.87;27.77;;;;;;;15.69;100.00;101696.38;5020482;28;20072;-88
2022/10/31 11:09:37;;;;;;;34.83;27.50;;;;;;;15.68;100.00;101695.53;5021177;28;20477;-88
2022/10/31 11:12:22;;;;;;;37.70;28.43;;;;;;;15.85;100.00;101687.63;5019872;28;20041;-87
2022/10/31 11:14:50;;;;;;;;;;;;;;;16.03;100.00;101685.94;5020091;28;20041;-88
2022/10/31 11:17:26;;;;;;;34.53;27.70;;;;;;;15.86;100.00;101688.47;5019815;28;19956;-87
2022/10/31 11:20:24;;;;;;;35.70;27.77;;;;;;;16.02;100.00;101695.22;5020275;28;20033;-87
2022/10/31 11:23:01;;;;;;;34.53;27.80;;;;;;;16.03;100.00;101697.75;5020080;28;20187;-88